createdAt,value
2019-04-21T00:01:09.144Z,15.57
2019-04-21T00:03:47.948Z,13.97
2019-04-21T00:06:36.805Z,13.17
2019-04-21T00:09:11.487Z,13.80
2019-04-21T00:11:40.874Z,13.50
2019-04-21T00:14:03.726Z,14.00
2019-04-21T00:16:33.078Z,13.13
2019-04-21T00:19:23.009Z,14.87
2019-04-21T00:21:56.605Z,13.30
2019-04-21T00:24:34.707Z,13.37
2019-04-21T00:27:10.934Z,14.67
2019-04-21T00:29:45.610Z,14.00
2019-04-21T00:32:10.152Z,14.50
2019-04-21T00:34:30.188Z,13.20
2019-04-21T00:37:12.305Z,14.13
2019-04-21T00:42:22.811Z,13.33
2019-04-21T00:44:56.561Z,14.30
2019-04-21T00:47:32.480Z,14.73
2019-04-21T00:50:03.099Z,13.80
2019-04-21T00:57:58.539Z,14.37
2019-04-21T01:00:27.812Z,14.20
2019-04-21T01:02:57.992Z,14.60
2019-04-21T01:05:28.338Z,14.20
2019-04-21T01:07:58.345Z,15.43
2019-04-21T01:10:24.536Z,15.47
2019-04-21T01:13:09.581Z,15.03
2019-04-21T01:15:45.031Z,14.90
2019-04-21T01:18:12.919Z,14.90
2019-04-21T01:20:20.175Z,16.83
2019-04-21T01:22:51.514Z,15.10
2019-04-21T01:25:30.240Z,14.93
2019-04-21T01:28:09.890Z,15.13
2019-04-21T01:30:44.899Z,14.10
2019-04-21T01:33:21.386Z,15.47
2019-04-21T01:35:49.413Z,14.73
2019-04-21T01:38:28.889Z,15.23
2019-04-21T01:40:52.935Z,15.23
2019-04-21T01:43:23.415Z,14.10
2019-04-21T01:45:53.541Z,15.73
2019-04-21T01:48:28.995Z,15.13
2019-04-21T01:50:55.528Z,15.73
2019-04-21T01:53:48.628Z,15.03
2019-04-21T01:56:38.698Z,15.07
2019-04-21T01:59:03.748Z,15.27
2019-04-21T02:01:45.819Z,15.43
2019-04-21T02:04:24.445Z,16.13
2019-04-21T02:06:50.464Z,16.03
2019-04-21T02:09:18.911Z,15.73
2019-04-21T02:11:56.161Z,15.63
2019-04-21T02:14:36.232Z,15.10
2019-04-21T02:16:59.502Z,16.23
2019-04-21T02:19:23.622Z,15.30
2019-04-21T02:21:54.289Z,15.87
2019-04-21T02:24:42.670Z,15.90
2019-04-21T02:27:06.809Z,15.93
2019-04-21T02:29:45.627Z,16.53
2019-04-21T02:35:04.048Z,16.10
2019-04-21T02:40:04.935Z,16.33
2019-04-21T02:42:32.451Z,15.63
2019-04-21T02:45:00.422Z,16.73
2019-04-21T02:50:11.304Z,16.40
2019-04-21T02:55:06.324Z,16.27
2019-04-21T02:57:47.862Z,17.03
2019-04-21T03:00:18.616Z,16.63
2019-04-21T03:02:58.634Z,15.77
2019-04-21T03:05:53.036Z,16.67
2019-04-21T03:08:38.560Z,16.53
2019-04-21T03:10:59.233Z,16.10
2019-04-21T03:16:09.787Z,17.00
2019-04-21T03:21:10.861Z,15.93
2019-04-21T03:23:52.297Z,17.27
2019-04-21T03:28:37.104Z,15.80
2019-04-21T03:34:15.644Z,16.00
2019-04-21T03:38:43.257Z,18.47
2019-04-21T03:41:20.424Z,18.93
2019-04-21T03:43:52.230Z,19.40
2019-04-21T03:51:25.853Z,18.43
2019-04-21T03:54:00.061Z,18.27
2019-04-21T03:56:52.260Z,18.80
2019-04-21T04:01:58.089Z,18.43
2019-04-21T04:12:57.219Z,19.00
2019-04-21T04:15:43.004Z,18.73
2019-04-21T04:18:07.704Z,18.10
2019-04-21T04:20:39.958Z,17.87
2019-04-21T04:23:08.000Z,17.90
2019-04-21T04:25:43.314Z,18.40
2019-04-21T04:28:19.108Z,17.73
2019-04-21T04:30:45.954Z,19.60
2019-04-21T04:33:29.949Z,19.83
2019-04-21T04:41:28.926Z,18.60
2019-04-21T04:43:54.899Z,17.67
2019-04-21T04:46:26.954Z,18.47
2019-04-21T04:51:43.883Z,19.97
2019-04-21T04:56:31.144Z,17.93
2019-04-21T04:59:29.975Z,17.90
2019-04-21T05:06:46.064Z,20.30
2019-04-21T05:11:50.088Z,19.73
2019-04-21T05:14:18.247Z,18.90
2019-04-21T05:19:20.959Z,18.70
2019-04-21T05:22:14.126Z,20.00
2019-04-21T05:24:18.908Z,19.37
2019-04-21T05:26:48.014Z,19.47
2019-04-21T05:29:20.461Z,18.27
2019-04-21T05:32:13.632Z,18.37
2019-04-21T05:34:50.776Z,18.23
2019-04-21T05:37:31.703Z,18.90
2019-04-21T05:40:00.673Z,18.40
2019-04-21T05:42:35.400Z,18.20
2019-04-21T05:45:21.084Z,18.40
2019-04-21T05:48:11.725Z,18.70
2019-04-21T05:50:34.973Z,17.60
2019-04-21T05:53:09.766Z,15.90
2019-04-21T05:55:46.895Z,15.47
2019-04-21T05:58:14.506Z,15.73
2019-04-21T06:01:16.661Z,16.40
2019-04-21T06:03:34.292Z,16.30
2019-04-21T06:06:12.175Z,16.13
2019-04-21T06:08:36.183Z,16.20
2019-04-21T06:11:10.372Z,15.60
2019-04-21T06:16:30.314Z,15.43
2019-04-21T06:18:48.837Z,15.30
2019-04-21T06:21:16.591Z,15.07
2019-04-21T06:23:45.025Z,16.97
2019-04-21T06:28:54.882Z,14.70
2019-04-21T06:33:58.799Z,15.30
2019-04-21T06:41:48.415Z,16.13
2019-04-21T06:44:22.716Z,15.23
2019-04-21T06:46:48.889Z,15.13
2019-04-21T06:49:27.400Z,15.10
2019-04-21T06:52:11.404Z,16.07
2019-04-21T06:54:34.171Z,15.67
2019-04-21T06:57:03.307Z,16.00
2019-04-21T06:59:35.162Z,16.90
2019-04-21T07:02:28.233Z,16.53
2019-04-21T07:04:57.595Z,15.27
2019-04-21T07:07:22.707Z,16.23
2019-04-21T07:09:57.183Z,17.20
2019-04-21T07:12:21.990Z,16.73
2019-04-21T07:14:59.568Z,15.93
2019-04-21T07:17:27.908Z,16.00
2019-04-21T07:20:07.238Z,17.37
2019-04-21T07:22:37.119Z,17.83
2019-04-21T07:25:10.538Z,17.37
2019-04-21T07:27:43.413Z,17.70
2019-04-21T07:30:14.806Z,16.57
2019-04-21T07:32:51.332Z,17.20
2019-04-21T07:35:18.924Z,17.90
2019-04-21T07:37:50.806Z,18.07
2019-04-21T07:40:17.715Z,18.30
2019-04-21T07:42:49.799Z,18.80
2019-04-21T07:45:16.587Z,19.23
2019-04-21T07:48:06.564Z,17.90
2019-04-21T07:50:47.310Z,17.40
2019-04-21T07:53:27.708Z,17.83
2019-04-21T07:55:42.416Z,18.23
2019-04-21T07:58:38.682Z,17.80
2019-04-21T08:01:09.504Z,19.27
2019-04-21T08:03:38.867Z,18.27
2019-04-21T08:06:28.383Z,18.53
2019-04-21T08:08:42.172Z,19.63
2019-04-21T08:11:09.594Z,18.43
2019-04-21T08:13:51.791Z,19.27
2019-04-21T08:16:22.782Z,19.10
2019-04-21T08:18:52.506Z,19.37
2019-04-21T08:21:24.618Z,17.87
2019-04-21T08:23:55.342Z,17.60
2019-04-21T08:26:31.176Z,18.50
2019-04-21T08:29:01.337Z,19.60
2019-04-21T08:31:42.647Z,18.00
2019-04-21T08:34:07.688Z,17.30
2019-04-21T08:36:33.944Z,19.17
2019-04-21T08:39:07.323Z,18.97
2019-04-21T08:41:38.584Z,18.33
2019-04-21T08:44:10.552Z,17.43
2019-04-21T08:46:49.209Z,18.43
2019-04-21T08:49:13.354Z,19.77
2019-04-21T08:51:48.446Z,18.77
2019-04-21T08:54:23.485Z,18.03
2019-04-21T08:57:01.152Z,17.90
2019-04-21T08:59:45.929Z,21.10
2019-04-21T09:02:35.364Z,17.73
2019-04-21T09:05:04.711Z,18.17
2019-04-21T09:07:39.539Z,18.63
2019-04-21T09:10:09.699Z,18.17
2019-04-21T09:12:43.247Z,17.23
2019-04-21T09:15:14.067Z,18.50
2019-04-21T09:17:41.133Z,18.57
2019-04-21T09:20:40.175Z,26.80
2019-04-21T09:22:54.300Z,18.00
2019-04-21T09:25:36.001Z,18.47
2019-04-21T09:27:55.452Z,19.30
2019-04-21T09:30:11.164Z,19.53
2019-04-21T09:32:42.439Z,17.67
2019-04-21T09:35:18.407Z,17.40
2019-04-21T09:37:55.283Z,17.80
2019-04-21T09:40:26.154Z,17.93
2019-04-21T09:42:58.686Z,17.60
2019-04-21T09:45:24.443Z,18.00
2019-04-21T09:48:02.684Z,17.80
2019-04-21T09:50:27.182Z,17.97
2019-04-21T09:53:03.892Z,18.53
2019-04-21T09:55:36.434Z,20.13
2019-04-21T09:58:12.661Z,16.40
2019-04-21T10:00:46.393Z,17.53
2019-04-21T10:03:08.775Z,17.27
2019-04-21T10:05:38.427Z,17.97
2019-04-21T10:08:10.327Z,19.33
2019-04-21T10:10:40.711Z,15.93
2019-04-21T10:13:11.090Z,17.33
2019-04-21T10:15:41.950Z,16.23
2019-04-21T10:18:17.273Z,15.70
2019-04-21T10:20:47.591Z,16.90
2019-04-21T10:23:17.891Z,17.53
2019-04-21T10:25:48.497Z,15.77
2019-04-21T10:28:19.102Z,17.23
2019-04-21T10:30:50.852Z,16.63
2019-04-21T10:33:22.032Z,15.47
2019-04-21T10:35:53.079Z,16.20
2019-04-21T10:38:34.352Z,15.50
2019-04-21T10:40:57.034Z,15.73
2019-04-21T10:43:29.251Z,15.03
2019-04-21T10:46:01.089Z,16.97
2019-04-21T10:48:34.376Z,16.20
2019-04-21T10:51:03.339Z,16.10
2019-04-21T10:53:36.807Z,17.67
2019-04-21T10:56:14.530Z,17.87
2019-04-21T10:58:42.277Z,17.47
2019-04-21T11:01:14.775Z,17.63
2019-04-21T11:03:58.798Z,17.47
2019-04-21T11:06:28.961Z,15.67
2019-04-21T11:09:01.415Z,17.13
2019-04-21T11:11:32.087Z,15.53
2019-04-21T11:14:02.576Z,16.20
2019-04-21T11:16:33.269Z,14.47
2019-04-21T11:19:04.087Z,14.70
2019-04-21T11:21:36.562Z,14.63
2019-04-21T11:24:08.197Z,18.60
2019-04-21T11:26:38.431Z,16.80
2019-04-21T11:29:08.795Z,18.93
2019-04-21T11:31:39.039Z,17.03
2019-04-21T11:34:09.639Z,16.00
2019-04-21T11:36:40.508Z,15.87
2019-04-21T11:39:39.300Z,15.10
2019-04-21T11:41:58.027Z,15.10
2019-04-21T11:44:29.073Z,14.50
2019-04-21T11:47:00.562Z,16.57
2019-04-21T11:49:32.485Z,15.10
2019-04-21T11:52:04.810Z,14.40
2019-04-21T11:54:37.057Z,15.13
2019-04-21T11:57:14.029Z,15.23
2019-04-21T11:59:39.704Z,14.63
2019-04-21T12:02:10.207Z,19.00
2019-04-21T12:04:41.262Z,15.73
2019-04-21T12:07:11.553Z,15.10
2019-04-21T12:09:41.723Z,14.47
2019-04-21T12:12:11.966Z,12.70
2019-04-21T12:14:42.241Z,13.40
2019-04-21T12:17:14.142Z,12.10
2019-04-21T12:19:46.086Z,13.17
2019-04-21T12:22:22.258Z,12.50
2019-04-21T12:24:49.709Z,11.97
2019-04-21T12:27:20.414Z,13.03
2019-04-21T12:29:51.680Z,12.00
2019-04-21T12:32:46.296Z,14.67
2019-04-21T12:35:17.687Z,13.60
2019-04-21T12:37:49.007Z,12.17
2019-04-21T12:40:20.858Z,12.30
2019-04-21T12:42:52.276Z,11.60
2019-04-21T12:45:24.066Z,12.20
2019-04-21T12:47:55.743Z,12.82
2019-04-21T12:50:27.773Z,13.23
2019-04-21T12:52:58.350Z,11.50
2019-04-21T12:55:34.129Z,11.23
2019-04-21T12:58:03.571Z,13.67
2019-04-21T13:00:34.066Z,13.68
2019-04-21T13:03:05.722Z,12.57
2019-04-21T13:05:36.333Z,13.70
2019-04-21T13:08:07.225Z,13.87
2019-04-21T13:10:38.311Z,13.50
2019-04-21T13:13:08.490Z,12.83
2019-04-21T13:15:39.799Z,14.03
2019-04-21T13:18:10.207Z,12.83
2019-04-21T13:20:42.299Z,12.23
2019-04-21T13:23:13.854Z,11.88
2019-04-21T13:25:47.731Z,11.30
2019-04-21T13:28:18.722Z,11.30
2019-04-21T13:30:49.055Z,10.20
2019-04-21T13:33:20.872Z,11.43
2019-04-21T13:35:52.991Z,10.70
2019-04-21T13:38:31.029Z,10.72
2019-04-21T13:41:24.710Z,10.28
2019-04-21T13:43:41.151Z,9.05
2019-04-21T13:46:12.075Z,11.80
2019-04-21T13:48:42.581Z,10.03
2019-04-21T13:51:13.327Z,9.75
2019-04-21T13:53:43.990Z,9.45
2019-04-21T13:56:14.414Z,10.20
2019-04-21T13:58:44.671Z,10.58
2019-04-21T14:01:15.967Z,10.10
2019-04-21T14:03:47.287Z,9.20
2019-04-21T14:06:18.481Z,10.10
2019-04-21T14:08:50.605Z,9.45
2019-04-21T14:11:20.550Z,9.98
2019-04-21T14:13:50.711Z,9.25
2019-04-21T14:16:22.157Z,10.20
2019-04-21T14:18:52.653Z,9.45
2019-04-21T14:21:23.200Z,9.78
2019-04-21T14:23:54.555Z,10.43
2019-04-21T14:26:26.825Z,9.30
2019-04-21T14:28:57.094Z,10.03
2019-04-21T14:31:28.409Z,10.35
2019-04-21T14:33:59.688Z,9.67
2019-04-21T14:36:30.697Z,9.30
2019-04-21T14:39:00.973Z,9.30
2019-04-21T14:41:32.483Z,9.30
2019-04-21T14:44:03.179Z,10.25
2019-04-21T14:46:39.516Z,10.23
2019-04-21T14:49:41.566Z,10.13
2019-04-21T14:52:21.206Z,9.88
2019-04-21T14:54:54.497Z,9.25
2019-04-21T14:57:25.163Z,10.40
2019-04-21T14:59:55.493Z,9.93
2019-04-21T15:02:25.819Z,9.80
2019-04-21T15:04:55.926Z,10.03
2019-04-21T15:07:27.475Z,9.58
2019-04-21T15:10:04.789Z,8.70
2019-04-21T15:12:30.011Z,9.85
2019-04-21T15:15:00.311Z,11.95
2019-04-21T15:17:31.630Z,9.15
2019-04-21T15:20:06.628Z,9.83
2019-04-21T15:22:34.566Z,9.70
2019-04-21T15:25:05.853Z,9.13
2019-04-21T15:27:36.925Z,9.48
2019-04-21T15:30:09.142Z,8.93
2019-04-21T15:32:40.240Z,8.95
2019-04-21T15:35:11.104Z,8.75
2019-04-21T15:37:42.068Z,8.53
2019-04-21T15:40:21.947Z,8.88
2019-04-21T15:42:44.379Z,8.23
2019-04-21T15:45:14.837Z,8.83
2019-04-21T15:47:46.188Z,7.92
2019-04-21T15:50:19.420Z,8.38
2019-04-21T15:52:49.796Z,8.28
2019-04-21T15:55:39.228Z,8.75
2019-04-21T15:58:20.608Z,8.33
2019-04-21T16:00:56.455Z,7.78
2019-04-21T16:03:26.855Z,8.10
2019-04-21T16:05:57.185Z,7.92
2019-04-21T16:08:27.339Z,7.67
2019-04-21T16:11:01.867Z,8.38
2019-04-21T16:13:29.931Z,8.90
2019-04-21T16:16:00.326Z,7.50
2019-04-21T16:18:32.001Z,8.23
2019-04-21T16:21:04.112Z,7.67
2019-04-21T16:23:34.516Z,7.60
2019-04-21T16:26:04.789Z,7.72
2019-04-21T16:28:35.213Z,8.43
2019-04-21T16:31:06.744Z,7.83
2019-04-21T16:33:37.058Z,7.28
2019-04-21T16:36:10.334Z,7.25
2019-04-21T16:38:39.642Z,7.35
2019-04-21T16:41:12.012Z,6.78
2019-04-21T16:43:43.026Z,7.03
2019-04-21T16:46:13.693Z,8.60
2019-04-21T16:48:44.131Z,8.38
2019-04-21T16:51:15.416Z,8.43
2019-04-21T16:53:53.148Z,8.70
2019-04-21T16:56:28.940Z,8.23
2019-04-21T16:59:06.399Z,8.53
2019-04-21T17:01:36.680Z,8.03
2019-04-21T17:04:06.824Z,8.93
2019-04-21T17:06:38.289Z,8.70
2019-04-21T17:09:08.853Z,8.50
2019-04-21T17:11:40.126Z,7.87
2019-04-21T17:14:27.230Z,8.00
2019-04-21T17:17:12.639Z,8.58
2019-04-21T17:19:23.241Z,7.95
2019-04-21T17:21:47.543Z,7.70
2019-04-21T17:24:18.120Z,7.55
2019-04-21T17:26:49.578Z,8.15
2019-04-21T17:29:20.853Z,7.30
2019-04-21T17:31:51.078Z,7.35
2019-04-21T17:34:24.946Z,7.53
2019-04-21T17:36:53.336Z,8.35
2019-04-21T17:39:24.818Z,7.92
2019-04-21T17:42:05.234Z,7.60
2019-04-21T17:44:27.731Z,7.75
2019-04-21T17:47:02.042Z,7.65
2019-04-21T17:49:31.271Z,7.78
2019-04-21T17:52:25.514Z,7.45
2019-04-21T17:55:25.024Z,8.23
2019-04-21T17:58:05.121Z,8.30
2019-04-21T18:00:57.714Z,8.25
2019-04-21T18:03:27.607Z,9.60
2019-04-21T18:05:43.563Z,9.10
2019-04-21T18:08:18.474Z,9.23
2019-04-21T18:10:43.971Z,7.63
2019-04-21T18:13:09.913Z,7.90
2019-04-21T18:15:47.106Z,7.20
2019-04-21T18:18:08.606Z,7.40
2019-04-21T18:20:41.841Z,7.00
2019-04-21T18:23:37.656Z,6.87
2019-04-21T18:26:02.923Z,6.90
2019-04-21T18:28:28.470Z,6.50
2019-04-21T18:31:04.670Z,6.20
2019-04-21T18:33:40.504Z,6.77
2019-04-21T18:36:31.787Z,7.17
2019-04-21T18:39:30.034Z,7.63
2019-04-21T18:42:09.404Z,7.37
2019-04-21T18:45:20.745Z,7.70
2019-04-21T18:47:50.009Z,7.50
2019-04-21T18:50:48.771Z,7.77
2019-04-21T18:53:35.164Z,8.13
2019-04-21T18:55:57.539Z,8.73
2019-04-21T18:58:22.166Z,8.10
2019-04-21T19:00:58.308Z,8.40
2019-04-21T19:03:33.341Z,7.87
2019-04-21T19:06:05.165Z,8.63
2019-04-21T19:08:51.253Z,7.20
2019-04-21T19:11:19.330Z,7.03
2019-04-21T19:16:53.986Z,13.20
2019-04-21T19:21:50.560Z,14.43
2019-04-21T19:24:24.346Z,13.10
2019-04-21T19:31:54.713Z,11.80
2019-04-21T19:34:18.650Z,11.33
2019-04-21T19:36:49.200Z,11.23
2019-04-21T19:39:25.953Z,11.20
2019-04-21T19:41:58.625Z,12.63
2019-04-21T19:44:36.590Z,11.93
2019-04-21T19:47:04.145Z,15.23
2019-04-21T19:49:45.711Z,11.23
2019-04-21T19:52:02.942Z,10.50
2019-04-21T19:54:32.053Z,10.67
2019-04-21T19:56:56.269Z,10.13
2019-04-21T19:59:36.164Z,9.57
2019-04-21T20:02:00.271Z,10.37
2019-04-21T20:04:40.713Z,10.30
2019-04-21T20:07:22.999Z,13.60
2019-04-21T20:10:03.499Z,17.00
2019-04-21T20:12:39.774Z,18.97
2019-04-21T20:15:20.222Z,16.60
2019-04-21T20:17:37.698Z,15.13
2019-04-21T20:19:54.128Z,13.33
2019-04-21T20:22:32.921Z,15.07
2019-04-21T20:25:05.950Z,14.53
2019-04-21T20:27:38.659Z,11.30
2019-04-21T20:30:21.633Z,11.03
2019-04-21T20:33:01.579Z,12.27
2019-04-21T20:35:35.196Z,12.70
2019-04-21T20:37:55.070Z,11.13
2019-04-21T20:40:19.623Z,10.80
2019-04-21T20:43:07.161Z,11.00
2019-04-21T20:45:38.360Z,10.63
2019-04-21T20:47:53.157Z,10.60
2019-04-21T20:50:33.720Z,9.70
2019-04-21T20:53:13.213Z,10.07
2019-04-21T20:55:39.491Z,10.53
2019-04-21T20:58:06.765Z,10.00
2019-04-21T21:00:55.735Z,10.23
2019-04-21T21:03:18.131Z,11.60
2019-04-21T21:05:42.525Z,10.40
2019-04-21T21:10:53.767Z,12.63
2019-04-21T21:13:31.113Z,11.97
2019-04-21T21:16:12.077Z,12.10
2019-04-21T21:18:53.339Z,11.87
2019-04-21T21:21:04.644Z,11.87
2019-04-21T21:23:39.940Z,11.87
2019-04-21T21:26:11.488Z,11.73
2019-04-21T21:28:32.832Z,11.70
2019-04-21T21:31:12.954Z,13.10
2019-04-21T21:33:58.857Z,12.77
2019-04-21T21:36:19.254Z,13.30
2019-04-21T21:38:54.626Z,12.60
2019-04-21T21:41:15.335Z,13.57
2019-04-21T21:43:39.162Z,12.10
2019-04-21T21:46:24.883Z,12.97
2019-04-21T21:48:53.621Z,12.60
2019-04-21T21:51:21.404Z,13.23
2019-04-21T21:53:46.087Z,12.23
2019-04-21T21:56:21.027Z,12.80
2019-04-21T21:58:51.999Z,12.47
2019-04-21T22:01:32.721Z,12.70
2019-04-21T22:04:04.904Z,13.27
2019-04-21T22:06:39.962Z,12.23
2019-04-21T22:08:58.786Z,11.67
2019-04-21T22:11:29.771Z,12.40
2019-04-21T22:14:04.321Z,12.00
2019-04-21T22:16:46.619Z,11.80
2019-04-21T22:19:20.248Z,12.00
2019-04-21T22:21:56.616Z,12.43
2019-04-21T22:24:20.330Z,12.13
2019-04-21T22:26:40.990Z,11.40
2019-04-21T22:29:11.809Z,11.57
2019-04-21T22:31:44.611Z,13.83
2019-04-21T22:34:18.033Z,12.73
2019-04-21T22:36:58.994Z,12.17
2019-04-21T22:39:43.428Z,12.90
2019-04-21T22:42:04.213Z,11.87
2019-04-21T22:44:24.741Z,12.60
2019-04-21T22:47:07.520Z,12.17
2019-04-21T22:49:26.731Z,11.50
2019-04-21T22:52:00.730Z,11.73
2019-04-21T22:54:34.185Z,12.33
2019-04-21T22:57:07.288Z,12.33
2019-04-21T22:59:34.148Z,11.90
2019-04-21T23:02:13.618Z,13.90
2019-04-21T23:04:45.141Z,13.53
2019-04-21T23:07:15.122Z,13.17
2019-04-21T23:09:43.165Z,13.20
2019-04-21T23:12:24.020Z,14.20
2019-04-21T23:14:57.195Z,13.03
2019-04-21T23:17:32.348Z,12.43
2019-04-21T23:20:10.289Z,13.23
2019-04-21T23:22:51.454Z,13.67
2019-04-21T23:25:15.453Z,13.03
2019-04-21T23:27:46.882Z,13.37
2019-04-21T23:30:26.162Z,12.60
2019-04-21T23:32:46.328Z,12.50
2019-04-21T23:35:18.066Z,13.37
2019-04-21T23:37:44.667Z,13.23
2019-04-21T23:40:17.468Z,13.37
2019-04-21T23:42:45.407Z,13.57
2019-04-21T23:45:18.353Z,13.07
2019-04-21T23:48:01.423Z,12.73
2019-04-21T23:50:33.244Z,12.87
2019-04-21T23:52:53.023Z,13.20
2019-04-21T23:55:23.395Z,13.47
2019-04-21T23:58:04.968Z,13.30
